Time;durP1;ratioP1;P1;durP2;ratioP2;P2;SDS_P1;SDS_P2;PMS_P1;PMS_P2;Temp;Humidity;BMP_temperature;BMP_pressure;BME280_temperature;BME280_humidity;BME280_pressure;Samples;Min_cycle;Max_cycle;Signal;HPM_P1;HPM_P2
2023/12/17 00:01:47;;;;;;;;;;;;;;;7.36;100.00;103310.16;4996373;28;20421;-81
2023/12/17 00:04:12;;;;;;;;;;;;;;;7.30;100.00;103302.56;4995256;28;20453;-80
2023/12/17 00:06:39;;;;;;;;;;;;;;;7.30;100.00;103302.56;4996154;28;20298;-81
2023/12/17 00:09:05;;;;;;;;;;;;;;;7.37;100.00;103303.81;4997052;28;20294;-82
2023/12/17 00:11:30;;;;;;;;;;;;;;;7.39;100.00;103307.25;4995648;28;19929;-81
2023/12/17 00:13:58;;;;;;;;;;;;;;;7.34;100.00;103309.41;4995737;28;19922;-81
2023/12/17 00:16:25;;;;;;;;;;;;;;;7.32;100.00;103310.50;4996471;28;19926;-81
2023/12/17 00:18:50;;;;;;;;;;;;;;;7.23;100.00;103314.72;4996092;28;20392;-81
2023/12/17 00:21:16;;;;;;;;;;;;;;;7.19;100.00;103315.91;4997055;28;19918;-80
2023/12/17 00:23:41;;;;;;;;;;;;;;;7.16;100.00;103316.13;4997135;28;20405;-80
2023/12/17 00:26:06;;;;;;;;;;;;;;;7.25;100.00;103312.75;5002295;28;19926;-80
2023/12/17 00:28:32;;;;;;;;;;;;;;;7.13;100.00;103307.34;4998220;28;19926;-80
2023/12/17 00:30:57;;;;;;;;;;;;;;;7.19;100.00;103306.03;4998767;28;19926;-81
2023/12/17 00:33:22;;;;;;;;;;;;;;;7.26;100.00;103301.06;4996886;28;19921;-81
2023/12/17 00:35:47;;;;;;;;;;;;;;;7.17;100.00;103291.06;4994577;28;19926;-81
2023/12/17 00:38:13;;;;;;;;;;;;;;;7.12;100.00;103300.28;4990441;28;19928;-81
2023/12/17 00:40:38;;;;;;;;;;;;;;;7.17;100.00;103291.06;4991506;28;19922;-81
2023/12/17 00:43:03;;;;;;;;;;;;;;;7.11;100.00;103279.81;4995638;28;19921;-81
2023/12/17 00:45:29;;;;;;;;;;;;;;;7.13;100.00;103296.63;4984545;28;19941;-80
2023/12/17 00:47:54;;;;;;;;;;;;;;;7.11;100.00;103292.38;4994217;28;19929;-80
2023/12/17 00:50:20;;;;;;;;;;;;;;;7.11;100.00;103289.69;4993284;28;19928;-80
2023/12/17 00:52:48;;;;;;;;;;;;;;;7.16;100.00;103282.13;4994719;28;19957;-80
2023/12/17 00:55:15;;;;;;;;;;;;;;;7.21;100.00;103287.19;4983791;28;20350;-80
2023/12/17 00:57:41;;;;;;;;;;;;;;;7.19;100.00;103286.44;4999433;28;19953;-81
2023/12/17 01:00:06;;;;;;;;;;;;;;;7.18;100.00;103282.03;4998773;28;19921;-80
2023/12/17 01:02:31;;;;;;;;;;;;;;;7.30;100.00;103285.63;5000954;28;19922;-81
2023/12/17 01:04:57;;;;;;;;;;;;;;;7.37;100.00;103301.13;4996975;28;20120;-81
2023/12/17 01:07:23;;;;;;;;;;;;;;;7.23;100.00;103309.34;4995080;28;19929;-81
2023/12/17 01:09:48;;;;;;;;;;;;;;;7.24;100.00;103311.03;4993749;28;19922;-82
2023/12/17 01:12:13;;;;;;;;;;;;;;;7.33;100.00;103296.09;4992618;28;19929;-81
2023/12/17 01:14:39;;;;;;;;;;;;;;;7.33;100.00;103296.09;4995110;28;19922;-81
2023/12/17 01:17:04;;;;;;;;;;;;;;;7.39;100.00;103309.06;4995604;28;19991;-81
2023/12/17 01:19:29;;;;;;;;;;;;;;;7.34;100.00;103305.84;4996267;28;20012;-80
2023/12/17 01:21:55;;;;;;;;;;;;;;;7.29;100.00;103316.91;4997206;28;19992;-81
2023/12/17 01:24:20;;;;;;;;;;;;;;;7.32;100.00;103305.97;4996817;28;20455;-81
2023/12/17 01:26:45;;;;;;;;;;;;;;;7.42;100.00;103300.78;4996469;28;19929;-81
2023/12/17 01:29:10;;;;;;;;;;;;;;;7.55;100.00;103312.28;4995230;28;19922;-81
2023/12/17 01:31:36;;;;;;;;;;;;;;;7.57;100.00;103304.16;4996038;28;19928;-81
2023/12/17 01:34:01;;;;;;;;;;;;;;;7.63;100.00;103295.63;4994067;28;20016;-81
2023/12/17 01:36:26;;;;;;;;;;;;;;;7.67;100.00;103290.91;4994253;28;19960;-81
2023/12/17 01:38:51;;;;;;;;;;;;;;;7.56;100.00;103297.91;4996412;28;19922;-81
2023/12/17 01:41:17;;;;;;;;;;;;;;;7.40;100.00;103282.16;4993930;28;19969;-81
2023/12/17 01:43:42;;;;;;;;;;;;;;;7.39;100.00;103290.28;4993460;28;19938;-81
2023/12/17 01:46:07;;;;;;;;;;;;;;;7.43;100.00;103281.91;4994350;28;19933;-81
2023/12/17 01:48:32;;;;;;;;;;;;;;;7.51;100.00;103288.50;4975716;28;19969;-81
2023/12/17 01:51:00;;;;;;;;;;;;;;;7.44;100.00;103283.59;4993179;28;20016;-81
2023/12/17 01:53:26;;;;;;;;;;;;;;;7.40;100.00;103283.97;4992694;28;19998;-81
2023/12/17 01:55:51;;;;;;;;;;;;;;;7.55;100.00;103284.63;4975375;28;19942;-82
2023/12/17 01:58:16;;;;;;;;;;;;;;;7.57;100.00;103285.38;4976455;28;19933;-81
2023/12/17 02:00:42;;;;;;;;;;;;;;;7.56;100.00;103284.50;4993781;28;19957;-82
2023/12/17 02:03:07;;;;;;;;;;;;;;;7.52;100.00;103291.06;4975619;28;19930;-81
2023/12/17 02:05:35;;;;;;;;;;;;;;;7.55;100.00;103279.28;4992698;28;20337;-81
2023/12/17 02:08:00;;;;;;;;;;;;;;;7.39;100.00;103293.84;4993551;28;19948;-81
2023/12/17 02:10:26;;;;;;;;;;;;;;;7.52;100.00;103284.88;4991284;28;19926;-81
2023/12/17 02:12:51;;;;;;;;;;;;;;;7.54;100.00;103286.44;4992635;28;20057;-81
2023/12/17 02:15:16;;;;;;;;;;;;;;;7.49;100.00;103279.72;4993221;28;19953;-81
2023/12/17 02:17:41;;;;;;;;;;;;;;;7.48;100.00;103283.38;4975383;28;20001;-81
2023/12/17 02:20:07;;;;;;;;;;;;;;;7.56;100.00;103281.81;4991225;28;19929;-81
2023/12/17 02:22:33;;;;;;;;;;;;;;;7.52;100.00;103271.47;4991329;28;19922;-82
2023/12/17 02:24:58;;;;;;;;;;;;;;;7.35;100.00;103276.28;4973642;28;19926;-81
2023/12/17 02:27:23;;;;;;;;;;;;;;;7.35;100.00;103281.63;4984071;28;20306;-81
2023/12/17 02:29:49;;;;;;;;;;;;;;;7.40;100.00;103282.16;4992186;28;19953;-82
2023/12/17 02:32:15;;;;;;;;;;;;;;;7.46;100.00;103288.00;4990990;28;19948;-82
2023/12/17 02:34:40;;;;;;;;;;;;;;;7.40;100.00;103282.16;4984567;28;19929;-81
2023/12/17 02:37:05;;;;;;;;;;;;;;;7.43;100.00;103286.41;4989246;28;20374;-78
2023/12/17 02:39:30;;;;;;;;;;;;;;;7.38;100.00;103284.09;4990779;28;20357;-78
2023/12/17 02:41:56;;;;;;;;;;;;;;;7.41;100.00;103288.34;4992228;28;19922;-78
2023/12/17 02:44:21;;;;;;;;;;;;;;;7.38;100.00;103289.44;4989520;28;19922;-78
2023/12/17 02:46:46;;;;;;;;;;;;;;;7.42;100.00;103293.59;4986052;28;19930;-78
2023/12/17 02:49:13;;;;;;;;;;;;;;;7.46;100.00;103277.28;4987134;28;19976;-77
2023/12/17 02:51:38;;;;;;;;;;;;;;;7.38;100.00;103280.53;4978340;28;19925;-78
2023/12/17 02:54:04;;;;;;;;;;;;;;;7.34;100.00;103289.78;4984756;28;19957;-77
2023/12/17 02:56:29;;;;;;;;;;;;;;;7.37;100.00;103293.09;4991237;28;19933;-77
2023/12/17 02:58:54;;;;;;;;;;;;;;;7.41;100.00;103288.34;4991362;28;19928;-78
2023/12/17 03:01:19;;;;;;;;;;;;;;;7.49;100.00;103291.31;4991310;28;19922;-78
2023/12/17 03:03:44;;;;;;;;;;;;;;;7.49;100.00;103285.97;4991913;28;19976;-78
2023/12/17 03:06:13;;;;;;;;;;;;;;;7.42;100.00;103274.81;4983291;28;19965;-78
2023/12/17 03:08:38;;;;;;;;;;;;;;;7.57;100.00;103274.66;4995206;28;20016;-78
2023/12/17 03:11:03;;;;;;;;;;;;;;;7.55;100.00;103279.28;4995899;28;20008;-78
2023/12/17 03:13:31;;;;;;;;;;;;;;;7.62;100.00;103272.47;4988264;28;19985;-78
2023/12/17 03:15:56;;;;;;;;;;;;;;;7.51;100.00;103272.44;4989539;28;19921;-78
2023/12/17 03:18:22;;;;;;;;;;;;;;;7.57;100.00;103266.63;4980997;28;19961;-78
2023/12/17 03:20:48;;;;;;;;;;;;;;;7.54;100.00;103266.84;4990568;28;19933;-78
2023/12/17 03:23:17;;;;;;;;;;;;;;;7.68;100.00;103261.28;4996968;28;19922;-78
2023/12/17 03:25:43;;;;;;;;;;;;;;;7.71;100.00;103257.50;4996247;28;19996;-77
2023/12/17 03:28:08;;;;;;;;;;;;;;;7.78;100.00;103258.75;4996734;28;19921;-78
2023/12/17 03:30:34;;;;;;;;;;;;;;;7.76;100.00;103252.63;4995232;28;19930;-77
2023/12/17 03:32:59;;;;;;;;;;;;;;;7.70;100.00;103259.34;4994000;28;19953;-77
2023/12/17 03:35:24;;;;;;;;;;;;;;;7.71;100.00;103249.44;4996513;28;19922;-77
2023/12/17 03:37:49;;;;;;;;;;;;;;;7.67;100.00;103239.97;4985637;28;19933;-77
2023/12/17 03:40:15;;;;;;;;;;;;;;;7.62;100.00;103234.94;4997330;28;20380;-78
2023/12/17 03:42:40;;;;;;;;;;;;;;;7.62;100.00;103231.41;4990288;28;20349;-77
2023/12/17 03:45:17;;;;;;;;;;;;;;;7.59;100.00;103237.84;4981828;28;19922;-78
2023/12/17 03:47:46;;;;;;;;;;;;;;;7.64;100.00;103241.03;4996850;28;19928;-78
2023/12/17 03:50:11;;;;;;;;;;;;;;;7.54;100.00;103234.69;4992547;28;20460;-78
2023/12/17 03:52:36;;;;;;;;;;;;;;;7.58;100.00;103226.28;4996353;28;19922;-77
2023/12/17 03:55:02;;;;;;;;;;;;;;;7.62;100.00;103216.16;4992160;28;20414;-78
2023/12/17 03:57:27;;;;;;;;;;;;;;;7.60;100.00;103218.09;4985761;28;20457;-78
2023/12/17 03:59:52;;;;;;;;;;;;;;;7.57;100.00;103223.72;4990968;28;20378;-77
2023/12/17 04:02:17;;;;;;;;;;;;;;;7.56;100.00;103222.00;4977288;28;19933;-77
2023/12/17 04:04:43;;;;;;;;;;;;;;;7.50;100.00;103225.16;4984274;28;19921;-76
2023/12/17 04:07:08;;;;;;;;;;;;;;;7.41;100.00;103224.03;5005445;28;20388;-77
2023/12/17 04:09:33;;;;;;;;;;;;;;;7.48;100.00;103225.28;4984537;28;20463;-77
2023/12/17 04:11:58;;;;;;;;;;;;;;;7.53;100.00;103222.25;4992111;28;19922;-77
2023/12/17 04:14:23;;;;;;;;;;;;;;;7.55;100.00;103218.47;4996097;28;20259;-78
2023/12/17 04:16:49;;;;;;;;;;;;;;;7.49;100.00;103210.03;4989238;28;20678;-77
2023/12/17 04:19:14;;;;;;;;;;;;;;;7.52;100.00;103209.81;4984383;28;19956;-77
2023/12/17 04:21:39;;;;;;;;;;;;;;;7.40;100.00;103206.25;4992966;28;19983;-77
2023/12/17 04:24:05;;;;;;;;;;;;;;;7.34;100.00;103207.56;4981871;28;20032;-77
2023/12/17 04:29:05;;;;;;;;;;;;;;;7.50;100.00;103212.59;5444087;22;19925;-78
2023/12/17 04:31:30;;;;;;;;;;;;;;;7.54;100.00;103213.22;4993672;28;19925;-77
2023/12/17 04:33:56;;;;;;;;;;;;;;;7.43;100.00;103217.56;5014088;28;19968;-77
2023/12/17 04:36:21;;;;;;;;;;;;;;;7.29;100.00;103209.75;5014950;28;19921;-77
2023/12/17 04:38:48;;;;;;;;;;;;;;;7.28;100.00;103203.53;5009900;28;20008;-77
2023/12/17 04:46:16;;;;;;;;;;;;;;;7.43;100.00;103192.63;5013587;28;19926;-78
2023/12/17 04:48:42;;;;;;;;;;;;;;;7.51;100.00;103192.88;5002300;28;19934;-78
2023/12/17 04:51:10;;;;;;;;;;;;;;;7.48;100.00;103197.63;5002477;28;19949;-78
2023/12/17 04:53:35;;;;;;;;;;;;;;;7.53;100.00;103190.09;5012238;28;19929;-78
2023/12/17 04:56:00;;;;;;;;;;;;;;;7.54;100.00;103198.00;5007011;28;19926;-77
2023/12/17 04:58:25;;;;;;;;;;;;;;;7.56;100.00;103200.56;5004827;28;19980;-77
2023/12/17 05:00:50;;;;;;;;;;;;;;;7.53;100.00;103198.97;5007578;28;19933;-77
2023/12/17 05:03:18;;;;;;;;;;;;;;;7.49;100.00;103204.69;5007336;28;20012;-77
2023/12/17 05:05:44;;;;;;;;;;;;;;;7.47;100.00;103196.78;5019909;28;19948;-78
2023/12/17 05:08:12;;;;;;;;;;;;;;;7.42;100.00;103194.44;5168481;23;19926;-78
2023/12/17 05:10:37;;;;;;;;;;;;;;;7.45;100.00;103188.00;5006539;28;19976;-79
2023/12/17 05:13:02;;;;;;;;;;;;;;;7.38;100.00;103187.63;5230468;22;19925;-78
2023/12/17 05:15:27;;;;;;;;;;;;;;;7.47;100.00;103191.41;5006905;28;19921;-78
2023/12/17 05:17:53;;;;;;;;;;;;;;;7.51;100.00;103190.19;5012632;28;19931;-78
2023/12/17 05:20:18;;;;;;;;;;;;;;;7.34;100.00;103188.81;5009460;28;19925;-78
2023/12/17 05:22:43;;;;;;;;;;;;;;;7.26;100.00;103185.84;5007364;28;20025;-78
2023/12/17 05:25:08;;;;;;;;;;;;;;;7.33;100.00;103180.88;5009345;28;19964;-78
2023/12/17 05:27:33;;;;;;;;;;;;;;;7.39;100.00;103175.94;5002408;28;20271;-78
2023/12/17 05:29:59;;;;;;;;;;;;;;;7.41;100.00;103179.31;4994534;28;19947;-78
2023/12/17 05:32:24;;;;;;;;;;;;;;;7.42;100.00;103185.53;4994898;28;19969;-78
2023/12/17 05:34:49;;;;;;;;;;;;;;;7.49;100.00;103185.94;4994638;28;19925;-78
2023/12/17 05:37:14;;;;;;;;;;;;;;;7.56;100.00;103179.13;5010631;28;19922;-78
2023/12/17 05:39:40;;;;;;;;;;;;;;;7.63;100.00;103187.53;5014490;28;19929;-78
2023/12/17 05:42:05;;;;;;;;;;;;;;;7.64;100.00;103182.03;5008635;28;19925;-78
2023/12/17 05:44:30;;;;;;;;;;;;;;;7.60;100.00;103177.88;5013619;28;19981;-78
2023/12/17 05:46:58;;;;;;;;;;;;;;;7.62;100.00;103178.63;5007800;28;20373;-78
2023/12/17 05:49:23;;;;;;;;;;;;;;;7.67;100.00;103160.38;4998353;28;20698;-78
2023/12/17 05:51:48;;;;;;;;;;;;;;;7.56;100.00;103165.72;4998527;28;19921;-78
2023/12/17 05:54:14;;;;;;;;;;;;;;;7.42;100.00;103178.34;5011650;28;20028;-78
2023/12/17 05:56:40;;;;;;;;;;;;;;;7.52;100.00;103178.50;5011133;28;20282;-81
2023/12/17 05:59:05;;;;;;;;;;;;;;;7.46;100.00;103168.28;5001019;28;19921;-78
2023/12/17 06:01:30;;;;;;;;;;;;;;;7.50;100.00;103166.19;4998691;28;20366;-78
2023/12/17 06:03:56;;;;;;;;;;;;;;;7.33;100.00;103168.34;4992759;28;20378;-78
2023/12/17 06:06:21;;;;;;;;;;;;;;;7.41;100.00;103167.75;5002700;28;20544;-79
2023/12/17 06:08:46;;;;;;;;;;;;;;;7.42;100.00;103173.00;5001848;28;20710;-79
2023/12/17 06:11:16;;;;;;;;;;;;;;;7.46;100.00;103173.63;5001283;28;20516;-79
2023/12/17 06:13:41;;;;;;;;;;;;;;;7.44;100.00;103176.41;5000360;28;19929;-79
2023/12/17 06:16:07;;;;;;;;;;;;;;;7.39;100.00;103175.94;5001648;28;20029;-79
2023/12/17 06:18:32;;;;;;;;;;;;;;;7.28;100.00;103176.75;5002483;28;20332;-79
2023/12/17 06:20:57;;;;;;;;;;;;;;;7.41;100.00;103181.16;5000358;28;20281;-79
2023/12/17 06:23:23;;;;;;;;;;;;;;;7.35;100.00;103181.63;5002699;28;20794;-79
2023/12/17 06:25:48;;;;;;;;;;;;;;;7.30;100.00;103183.81;5001119;28;19921;-79
2023/12/17 06:28:13;;;;;;;;;;;;;;;7.13;100.00;103186.81;5003748;28;19960;-79
2023/12/17 06:30:39;;;;;;;;;;;;;;;7.27;100.00;103183.09;5002990;28;19926;-79
2023/12/17 06:33:04;;;;;;;;;;;;;;;7.42;100.00;103186.38;5002108;28;19922;-79
2023/12/17 06:35:29;;;;;;;;;;;;;;;7.37;100.00;103191.28;4995552;28;19922;-79
2023/12/17 06:37:55;;;;;;;;;;;;;;;7.46;100.00;103196.88;4997444;28;19929;-80
2023/12/17 06:40:20;;;;;;;;;;;;;;;7.40;100.00;103196.41;5009322;28;19929;-80
2023/12/17 06:45:14;;;;;;;;;;;;;;;7.40;100.00;103196.41;4981018;28;21865;-80
2023/12/17 06:47:39;;;;;;;;;;;;;;;7.38;100.00;103213.53;4983268;28;19930;-80
2023/12/17 06:50:04;;;;;;;;;;;;;;;7.40;100.00;103206.25;4982403;28;19948;-80
2023/12/17 06:52:30;;;;;;;;;;;;;;;7.37;100.00;103206.47;4979909;28;19930;-80
2023/12/17 06:54:55;;;;;;;;;;;;;;;7.28;100.00;103214.25;4982667;28;20317;-80
2023/12/17 06:57:20;;;;;;;;;;;;;;;7.28;100.00;103203.53;4988899;28;20711;-80
2023/12/17 06:59:45;;;;;;;;;;;;;;;7.41;100.00;103214.16;4993407;22;20360;-80
2023/12/17 07:02:10;;;;;;;;;;;;;;;7.41;100.00;103206.13;4991634;28;19922;-79
2023/12/17 07:04:36;;;;;;;;;;;;;;;7.42;100.00;103205.16;4991812;28;19921;-79
2023/12/17 07:07:02;;;;;;;;;;;;;;;7.40;100.00;103212.47;5000959;22;19922;-79
2023/12/17 07:09:27;;;;;;;;;;;;;;;7.44;100.00;103205.88;4984918;28;19936;-79
2023/12/17 07:11:53;;;;;;;;;;;;;;;7.41;100.00;103208.78;4984431;28;19921;-79
2023/12/17 07:14:18;;;;;;;;;;;;;;;7.39;100.00;103208.09;4985508;28;20008;-79
2023/12/17 07:16:43;;;;;;;;;;;;;;;7.28;100.00;103213.41;4987462;28;21176;-79
2023/12/17 07:19:11;;;;;;;;;;;;;;;7.31;100.00;103218.53;4984461;28;19957;-79
2023/12/17 07:21:36;;;;;;;;;;;;;;;7.38;100.00;103209.06;4992934;28;19949;-81
2023/12/17 07:24:23;;;;;;;;;;;;;;;7.35;100.00;103219.13;5009644;23;19921;-83
2023/12/17 07:26:51;;;;;;;;;;;;;;;7.41;100.00;103206.13;4991976;28;19926;-83
2023/12/17 07:29:17;;;;;;;;;;;;;;;7.32;100.00;103212.19;4980324;28;20416;-81
2023/12/17 07:31:57;;;;;;;;;;;;;;;7.39;100.00;103204.53;4992007;28;20016;-85
2023/12/17 07:34:22;;;;;;;;;;;;;;;7.42;100.00;103202.47;4975849;28;19926;-79
2023/12/17 07:36:48;;;;;;;;;;;;;;;7.31;100.00;103193.56;4974591;28;19941;-82
2023/12/17 07:39:13;;;;;;;;;;;;;;;7.37;100.00;103196.63;4973761;28;20293;-80
2023/12/17 07:41:44;;;;;;;;;;;;;;;7.37;100.00;103193.94;4987836;28;20020;-81
2023/12/17 07:44:18;;;;;;;;;;;;;;;7.36;100.00;103205.63;4980486;28;19925;-83
2023/12/17 07:46:53;;;;;;;;;;;;;;;7.35;100.00;103213.78;4974066;28;20283;-81
2023/12/17 07:49:18;;;;;;;;;;;;;;;7.37;100.00;103212.72;4983408;28;20585;-82
2023/12/17 07:52:15;;;;;;;;;;;;;;;7.36;100.00;103216.34;4982501;28;19922;-82
2023/12/17 07:54:42;;;;;;;;;;;;;;;7.28;100.00;103213.41;4980354;28;19922;-82
2023/12/17 07:57:17;;;;;;;;;;;;;;;7.31;100.00;103223.88;4977445;28;19930;-81
2023/12/17 07:59:51;;;;;;;;;;;;;;;7.31;100.00;103221.19;4977165;28;19922;-83
2023/12/17 08:02:19;;;;;;;;;;;;;;;7.26;100.00;103226.91;4980465;28;19929;-82
2023/12/17 08:04:56;;;;;;;;;;;;;;;7.23;100.00;103226.31;4985196;28;19922;-82
2023/12/17 08:07:21;;;;;;;;;;;;;;;7.20;100.00;103221.16;4990975;28;19922;-82
2023/12/17 08:10:02;;;;;;;;;;;;;;;7.26;100.00;103226.91;4988762;28;19985;-78
2023/12/17 08:12:27;;;;;;;;;;;;;;;7.25;100.00;103224.34;4981271;28;20005;-78
2023/12/17 08:14:53;;;;;;;;;;;;;;;7.16;100.00;103211.66;4986102;28;19926;-78
2023/12/17 08:17:18;;;;;;;;;;;;;;;7.18;100.00;103218.59;4998440;28;19924;-78
2023/12/17 08:19:43;;;;;;;;;;;;;;;7.13;100.00;103221.63;5003378;28;19940;-79
2023/12/17 08:27:25;;;;;;;;;;;;;;;7.14;100.00;103222.50;5286906;22;19929;-81
2023/12/17 08:29:50;;;;;;;;;;;;;;;7.04;100.00;103222.34;5016767;28;19925;-78
2023/12/17 08:32:16;;;;;;;;;;;;;;;7.10;100.00;103211.13;5016137;28;19918;-78
2023/12/17 08:34:41;;;;;;;;;;;;;;;7.15;100.00;103215.31;5017233;28;20332;-79
2023/12/17 08:37:06;;;;;;;;;;;;;;;7.09;100.00;103213.94;5016261;28;19921;-78
2023/12/17 08:39:32;;;;;;;;;;;;;;;7.08;100.00;103206.88;5016719;28;20443;-78
2023/12/17 08:42:09;;;;;;;;;;;;;;;7.06;100.00;103208.81;5019830;28;20293;-79
2023/12/17 08:44:43;;;;;;;;;;;;;;;7.06;100.00;103203.47;5013156;28;19945;-79
2023/12/17 08:47:08;;;;;;;;;;;;;;;7.04;100.00;103206.25;4998026;28;19955;-78
2023/12/17 08:49:34;;;;;;;;;;;;;;;7.07;100.00;103197.13;4999728;28;19918;-79
2023/12/17 08:51:59;;;;;;;;;;;;;;;7.08;100.00;103194.31;5010832;28;19918;-78
2023/12/17 08:54:27;;;;;;;;;;;;;;;7.09;100.00;103188.00;5006718;28;19964;-78
2023/12/17 08:56:52;;;;;;;;;;;;;;;7.10;100.00;103195.06;4997545;28;19922;-79
2023/12/17 08:59:17;;;;;;;;;;;;;;;7.13;100.00;103199.34;5010153;28;19945;-79
2023/12/17 09:01:43;;;;;;;;;;;;;;;7.16;100.00;103190.22;5014785;28;19917;-79
2023/12/17 09:04:08;;;;;;;;;;;;;;;7.15;100.00;103188.50;5014499;28;19976;-79
2023/12/17 09:06:43;;;;;;;;;;;;;;;7.11;100.00;103204.81;5015892;28;19917;-79
2023/12/17 09:09:08;;;;;;;;;;;;;;;7.09;100.00;103203.22;5013333;28;20349;-79
2023/12/17 09:11:42;;;;;;;;;;;;;;;7.04;100.00;103200.91;5012929;28;19917;-79
2023/12/17 09:14:08;;;;;;;;;;;;;;;7.02;100.00;103197.47;5000307;28;19995;-79
2023/12/17 09:16:34;;;;;;;;;;;;;;;6.97;100.00;103200.47;4994163;28;19960;-79
2023/12/17 09:19:00;;;;;;;;;;;;;;;6.86;100.00;103200.44;4992906;28;19918;-79
2023/12/17 09:21:25;;;;;;;;;;;;;;;6.83;100.00;103197.97;4994843;28;19925;-79
2023/12/17 09:23:51;;;;;;;;;;;;;;;6.88;100.00;103195.00;4993813;28;19917;-79
2023/12/17 09:26:19;;;;;;;;;;;;;;;6.82;100.00;103199.81;4993034;28;19929;-79
2023/12/17 09:28:44;;;;;;;;;;;;;;;6.89;100.00;103189.50;4995126;28;19918;-79
2023/12/17 09:31:10;;;;;;;;;;;;;;;6.86;100.00;103184.38;4993148;28;19968;-79
2023/12/17 09:33:36;;;;;;;;;;;;;;;6.87;100.00;103193.28;4992128;28;19918;-79
2023/12/17 09:36:04;;;;;;;;;;;;;;;6.83;100.00;103192.63;4993647;28;20389;-79
2023/12/17 09:38:29;;;;;;;;;;;;;;;6.88;100.00;103189.63;4993948;28;19913;-78
2023/12/17 09:40:54;;;;;;;;;;;;;;;6.87;100.00;103179.88;4993479;28;19981;-79
2023/12/17 09:43:24;;;;;;;;;;;;;;;6.83;100.00;103180.13;5006359;28;19922;-79
2023/12/17 09:45:49;;;;;;;;;;;;;;;6.82;100.00;103182.88;5013402;28;20322;-79
2023/12/17 09:48:15;;;;;;;;;;;;;;;6.70;100.00;103187.34;4997956;28;20361;-79
2023/12/17 09:50:43;;;;;;;;;;;;;;;6.81;100.00;103189.22;5017556;28;19918;-79
2023/12/17 09:53:08;;;;;;;;;;;;;;;6.82;100.00;103186.44;5015008;28;20283;-79
2023/12/17 09:55:35;;;;;;;;;;;;;;;6.79;100.00;103191.19;5015034;28;19917;-79
2023/12/17 09:58:04;;;;;;;;;;;;;;;6.79;100.00;103191.19;5003482;28;19994;-79
2023/12/17 10:00:32;;;;;;;;;;;;;;;6.79;100.00;103189.34;4993443;28;19943;-79
2023/12/17 10:03:08;;;;;;;;;;;;;;;6.79;100.00;103193.84;5088983;23;19926;-79
2023/12/17 10:05:33;;;;;;;;;;;;;;;6.77;100.00;103193.09;5012864;28;19976;-79
2023/12/17 10:07:59;;;;;;;;;;;;;;;6.70;100.00;103187.34;5012483;28;20317;-79
2023/12/17 10:10:24;;;;;;;;;;;;;;;6.77;100.00;103190.44;5013353;28;19917;-79
2023/12/17 10:12:50;;;;;;;;;;;;;;;6.82;100.00;103186.44;4994772;28;20265;-79
2023/12/17 10:15:15;;;;;;;;;;;;;;;6.75;100.00;103190.53;5012706;28;19921;-79
2023/12/17 10:17:40;;;;;;;;;;;;;;;6.80;100.00;103177.66;4996040;28;20032;-79
2023/12/17 10:20:06;;;;;;;;;;;;;;;6.74;100.00;103194.16;5013819;28;19959;-78
2023/12/17 10:22:31;;;;;;;;;;;;;;;6.81;100.00;103190.09;5012888;28;19917;-79
2023/12/17 10:25:00;;;;;;;;;;;;;;;6.88;100.00;103195.00;5013152;28;20384;-79
2023/12/17 10:27:27;;;;;;;;;;;;;;;6.95;100.00;103185.50;5002189;28;19921;-79
2023/12/17 10:29:52;;;;;;;;;;;;;;;6.95;100.00;103191.72;4992654;28;19918;-79
2023/12/17 10:32:19;;;;;;;;;;;;;;;6.94;100.00;103175.75;4993414;28;20229;-79
2023/12/17 10:34:44;;;;;;;;;;;;;;;6.95;100.00;103181.03;4992494;28;20302;-79
2023/12/17 10:37:09;;;;;;;;;;;;;;;6.88;100.00;103184.28;4974981;28;19924;-79
2023/12/17 10:39:35;;;;;;;;;;;;;;;6.98;100.00;103177.25;4992184;28;19918;-79
2023/12/17 10:42:00;;;;;;;;;;;;;;;6.97;100.00;103183.56;5002100;28;19922;-79
2023/12/17 10:44:25;;;;;;;;;;;;;;;6.94;100.00;103175.75;4994899;28;19921;-79
2023/12/17 10:46:51;;;;;;;;;;;;;;;6.90;100.00;103160.88;5012879;28;19917;-79
2023/12/17 10:49:16;;;;;;;;;;;;;;;6.85;100.00;103176.47;4995893;28;19918;-79
2023/12/17 10:51:42;;;;;;;;;;;;;;;6.82;100.00;103153.44;4995189;28;20004;-79
2023/12/17 10:54:07;;;;;;;;;;;;;;;6.67;100.00;103168.84;5013030;28;20067;-79
2023/12/17 10:56:34;;;;;;;;;;;;;;;6.45;100.00;103173.09;4994268;28;19921;-79
2023/12/17 10:58:59;;;;;;;;;;;;;;;6.32;100.00;103178.47;4976320;28;20008;-79
2023/12/17 11:01:26;;;;;;;;;;;;;;;6.40;100.00;103156.50;4993452;28;19965;-78
2023/12/17 11:03:54;;;;;;;;;;;;;;;6.27;100.00;103156.53;4975262;28;19925;-78
2023/12/17 11:06:20;;;;;;;;;;;;;;;6.11;100.00;103164.84;4977512;28;19952;-79
2023/12/17 11:08:46;;;;;;;;;;;;;;;6.16;100.00;103168.03;4995267;28;19976;-79
2023/12/17 11:11:11;;;;;;;;;;;;;;;6.14;100.00;103169.09;4986060;28;19921;-79
2023/12/17 11:13:36;;;;;;;;;;;;;;;6.07;100.00;103158.88;5021681;28;19948;-78
2023/12/17 11:16:26;;;;;;;;;;;;;;;6.11;100.00;103151.47;5001313;28;19929;-78
2023/12/17 11:18:51;;;;;;;;;;;;;;;6.05;100.00;103154.56;4998362;28;19929;-79
2023/12/17 11:21:19;;;;;;;;;;;;;;;5.98;100.00;103140.75;4999972;28;19918;-78
2023/12/17 11:23:48;;;;;;;;;;;;;;;5.79;100.00;103146.56;4999178;28;19957;-78
2023/12/17 11:26:19;;;;;;;;;;;;;;;5.79;100.00;103148.38;4999031;28;19918;-79
2023/12/17 11:28:46;;;;;;;;;;;;;;;5.73;100.00;103145.19;4997234;28;20394;-79
2023/12/17 11:31:12;;;;;;;;;;;;;;;5.67;100.00;103145.63;5003564;28;19921;-78
2023/12/17 11:33:37;;;;;;;;;;;;;;;5.68;100.00;103149.13;5016719;28;19921;-78
2023/12/17 11:36:03;;;;;;;;;;;;;;;5.68;100.00;103141.09;5016977;28;19963;-79
2023/12/17 11:38:28;;;;;;;;;;;;;;;5.59;100.00;103150.63;4999545;28;19921;-78
2023/12/17 11:40:53;;;;;;;;;;;;;;;5.60;100.00;103130.97;5003524;28;19932;-79
2023/12/17 11:43:23;;;;;;;;;;;;;;;5.68;100.00;103119.72;5029218;28;19922;-79
2023/12/17 11:45:49;;;;;;;;;;;;;;;5.61;100.00;103138.00;5021372;28;19917;-79
2023/12/17 11:48:14;;;;;;;;;;;;;;;5.65;100.00;103136.00;5021666;28;19914;-79
2023/12/17 11:50:50;;;;;;;;;;;;;;;5.55;100.00;103141.97;5019214;28;19918;-79
2023/12/17 11:53:15;;;;;;;;;;;;;;;5.58;100.00;103138.22;5016231;28;20382;-79
2023/12/17 11:55:44;;;;;;;;;;;;;;;5.62;100.00;103107.66;5000734;28;20009;-79
2023/12/17 11:58:10;;;;;;;;;;;;;;;5.68;100.00;103130.41;4997307;28;19925;-79
2023/12/17 12:00:36;;;;;;;;;;;;;;;5.75;100.00;103126.38;4995854;28;19920;-79
2023/12/17 12:03:01;;;;;;;;;;;;;;;5.76;100.00;103123.56;4996188;28;19922;-79
2023/12/17 12:05:26;;;;;;;;;;;;;;;5.73;100.00;103121.13;4997833;28;20020;-79
2023/12/17 12:07:52;;;;;;;;;;;;;;;5.68;100.00;103114.38;4998533;28;19956;-78
2023/12/17 12:10:18;;;;;;;;;;;;;;;5.67;100.00;103107.31;4990354;28;19932;-80
2023/12/17 12:12:46;;;;;;;;;;;;;;;5.51;100.00;103116.44;5023088;28;19917;-79
2023/12/17 12:15:11;;;;;;;;;;;;;;;5.59;100.00;103106.06;5035877;28;19932;-79
2023/12/17 12:17:40;;;;;;;;;;;;;;;5.51;100.00;103112.91;4997284;28;19921;-79
2023/12/17 12:20:06;;;;;;;;;;;;;;;5.57;100.00;103113.34;4998379;28;19925;-79
2023/12/17 12:22:31;;;;;;;;;;;;;;;5.53;100.00;103094.97;4998915;28;20239;-79
2023/12/17 12:24:56;;;;;;;;;;;;;;;5.37;100.00;103111.19;4993672;28;19976;-79
2023/12/17 12:27:22;;;;;;;;;;;;;;;5.42;100.00;103106.41;5005924;28;19918;-78
2023/12/17 12:29:48;;;;;;;;;;;;;;;5.46;100.00;103098.06;4993621;28;19922;-78
2023/12/17 12:32:24;;;;;;;;;;;;;;;5.34;100.00;103103.38;5004617;28;20012;-79
2023/12/17 12:34:51;;;;;;;;;;;;;;;5.39;100.00;103099.44;5002830;28;19925;-78
2023/12/17 12:37:29;;;;;;;;;;;;;;;5.44;100.00;103101.81;5000260;28;19971;-79
2023/12/17 12:39:55;;;;;;;;;;;;;;;5.61;100.00;103084.56;5015068;28;19940;-79
2023/12/17 12:42:20;;;;;;;;;;;;;;;5.63;100.00;103079.13;5027094;28;20688;-80
2023/12/17 12:47:20;;;;;;;;;;;;;;;5.58;100.00;103079.44;4993914;28;19926;-79
2023/12/17 12:49:45;;;;;;;;;;;;;;;5.61;100.00;103081.91;4994036;28;20447;-79